sensor_id;sensor_type;location;lat;lon;timestamp;pressure;altitude;pressure_sealevel;temperature;humidity
46534;BME280;32260;52.008;4.752;2022-09-27T00:01:09;99819.19;;;13.23;70.23
46534;BME280;32260;52.008;4.752;2022-09-27T00:03:35;99824.59;;;13.21;70.21
46534;BME280;32260;52.008;4.752;2022-09-27T00:06:11;99843.06;;;13.24;70.51
46534;BME280;32260;52.008;4.752;2022-09-27T00:08:38;99833.44;;;13.22;70.36
46534;BME280;32260;52.008;4.752;2022-09-27T00:11:07;99824.72;;;13.18;70.27
46534;BME280;32260;52.008;4.752;2022-09-27T00:13:35;99828.28;;;13.19;70.37
46534;BME280;32260;52.008;4.752;2022-09-27T00:16:02;99819.56;;;13.15;70.22
46534;BME280;32260;52.008;4.752;2022-09-27T00:18:30;99821.44;;;13.13;70.28
46534;BME280;32260;52.008;4.752;2022-09-27T00:21:05;99830.13;;;13.17;70.12
46534;BME280;32260;52.008;4.752;2022-09-27T00:23:32;99839.28;;;13.11;69.81
46534;BME280;32260;52.008;4.752;2022-09-27T00:25:59;99835.72;;;13.10;70.39
46534;BME280;32260;52.008;4.752;2022-09-27T00:28:26;99837.38;;;13.13;69.79
46534;BME280;32260;52.008;4.752;2022-09-27T00:30:53;99836.75;;;13.08;70.13
46534;BME280;32260;52.008;4.752;2022-09-27T00:33:19;99829.69;;;13.07;69.68
46534;BME280;32260;52.008;4.752;2022-09-27T00:35:46;99820.06;;;13.04;70.00
46534;BME280;32260;52.008;4.752;2022-09-27T00:38:12;99822.81;;;13.03;69.70
46534;BME280;32260;52.008;4.752;2022-09-27T00:40:38;99831.72;;;13.02;69.70
46534;BME280;32260;52.008;4.752;2022-09-27T00:43:18;99868.53;;;13.11;69.44
46534;BME280;32260;52.008;4.752;2022-09-27T00:45:52;99846.88;;;13.00;69.75
46534;BME280;32260;52.008;4.752;2022-09-27T00:48:23;99844.34;;;12.97;70.14
46534;BME280;32260;52.008;4.752;2022-09-27T00:50:54;99832.00;;;12.95;70.18
46534;BME280;32260;52.008;4.752;2022-09-27T00:53:30;99849.81;;;12.93;70.01
46534;BME280;32260;52.008;4.752;2022-09-27T00:56:07;99849.81;;;12.93;69.70
46534;BME280;32260;52.008;4.752;2022-09-27T00:58:37;99849.16;;;12.88;69.82
46534;BME280;32260;52.008;4.752;2022-09-27T01:01:07;99850.44;;;12.79;69.39
46534;BME280;32260;52.008;4.752;2022-09-27T01:03:42;99851.44;;;12.77;69.75
46534;BME280;32260;52.008;4.752;2022-09-27T01:06:10;99852.50;;;12.73;69.56
46534;BME280;32260;52.008;4.752;2022-09-27T01:08:36;99845.53;;;12.70;69.92
46534;BME280;32260;52.008;4.752;2022-09-27T01:16:43;99858.91;;;12.69;69.50
46534;BME280;32260;52.008;4.752;2022-09-27T01:22:38;99857.28;;;12.65;69.64
46534;BME280;32260;52.008;4.752;2022-09-27T01:24:54;99860.41;;;12.74;69.09
46534;BME280;32260;52.008;4.752;2022-09-27T01:30:28;99857.38;;;12.63;69.90
46534;BME280;32260;52.008;4.752;2022-09-27T01:33:39;99854.78;;;12.61;69.72
46534;BME280;32260;52.008;4.752;2022-09-27T01:39:05;99856.63;;;12.59;69.83
46534;BME280;32260;52.008;4.752;2022-09-27T01:41:55;99851.47;;;12.56;69.67
46534;BME280;32260;52.008;4.752;2022-09-27T01:44:31;99848.75;;;12.58;70.00
46534;BME280;32260;52.008;4.752;2022-09-27T01:47:03;99860.22;;;12.58;70.09
46534;BME280;32260;52.008;4.752;2022-09-27T01:49:34;99856.72;;;12.58;69.91
46534;BME280;32260;52.008;4.752;2022-09-27T01:52:06;99862.09;;;12.56;69.88
46534;BME280;32260;52.008;4.752;2022-09-27T01:54:39;99862.84;;;12.60;69.68
46534;BME280;32260;52.008;4.752;2022-09-27T01:57:10;99864.69;;;12.58;70.00
46534;BME280;32260;52.008;4.752;2022-09-27T01:59:57;99861.69;;;12.66;69.76
46534;BME280;32260;52.008;4.752;2022-09-27T02:02:27;99864.75;;;12.56;70.30
46534;BME280;32260;52.008;4.752;2022-09-27T02:04:57;99856.91;;;12.53;69.88
46534;BME280;32260;52.008;4.752;2022-09-27T02:07:39;99851.59;;;12.53;69.63
46534;BME280;32260;52.008;4.752;2022-09-27T02:10:09;99839.97;;;12.56;69.82
46534;BME280;32260;52.008;4.752;2022-09-27T02:12:45;99846.97;;;12.38;69.43
46534;BME280;32260;52.008;4.752;2022-09-27T02:15:14;99835.81;;;12.29;69.81
46534;BME280;32260;52.008;4.752;2022-09-27T02:17:52;99832.22;;;12.30;69.58
46534;BME280;32260;52.008;4.752;2022-09-27T02:20:29;99831.41;;;12.28;69.82
46534;BME280;32260;52.008;4.752;2022-09-27T02:25:45;99825.66;;;12.19;69.62
46534;BME280;32260;52.008;4.752;2022-09-27T02:30:52;99829.28;;;12.16;70.14
46534;BME280;32260;52.008;4.752;2022-09-27T02:33:22;99832.63;;;12.21;69.58
46534;BME280;32260;52.008;4.752;2022-09-27T02:35:49;99838.78;;;12.22;69.90
46534;BME280;32260;52.008;4.752;2022-09-27T02:38:15;99872.59;;;12.18;70.23
46534;BME280;32260;52.008;4.752;2022-09-27T02:40:44;99885.44;;;12.07;69.77
46534;BME280;32260;52.008;4.752;2022-09-27T02:43:12;99885.84;;;11.97;69.05
46534;BME280;32260;52.008;4.752;2022-09-27T02:46:10;99889.22;;;12.01;69.02
46534;BME280;32260;52.008;4.752;2022-09-27T02:48:56;99870.06;;;12.15;69.23
46534;BME280;32260;52.008;4.752;2022-09-27T02:52:53;99868.59;;;12.08;68.66
46534;BME280;32260;52.008;4.752;2022-09-27T03:00:09;99861.09;;;11.95;68.78
46534;BME280;32260;52.008;4.752;2022-09-27T03:02:59;99857.41;;;12.00;68.70
46534;BME280;32260;52.008;4.752;2022-09-27T03:05:31;99847.28;;;11.87;69.01
46534;BME280;32260;52.008;4.752;2022-09-27T03:07:58;99848.41;;;11.81;68.64
46534;BME280;32260;52.008;4.752;2022-09-27T03:10:27;99856.41;;;11.80;68.72
46534;BME280;32260;52.008;4.752;2022-09-27T03:12:54;99846.78;;;11.77;68.72
46534;BME280;32260;52.008;4.752;2022-09-27T03:15:21;99849.50;;;11.76;69.06
46534;BME280;32260;52.008;4.752;2022-09-27T03:17:47;99851.34;;;11.74;68.76
46534;BME280;32260;52.008;4.752;2022-09-27T03:20:13;99858.66;;;11.69;69.12
46534;BME280;32260;52.008;4.752;2022-09-27T03:22:40;99850.75;;;11.67;69.16
46534;BME280;32260;52.008;4.752;2022-09-27T03:25:07;99851.75;;;11.64;69.24
46534;BME280;32260;52.008;4.752;2022-09-27T03:27:33;99846.44;;;11.64;69.19
46534;BME280;32260;52.008;4.752;2022-09-27T03:29:59;99839.41;;;11.63;69.51
46534;BME280;32260;52.008;4.752;2022-09-27T03:32:26;99842.06;;;11.63;69.31
46534;BME280;32260;52.008;4.752;2022-09-27T03:34:52;99834.97;;;11.64;69.23
46534;BME280;32260;52.008;4.752;2022-09-27T03:37:20;99838.53;;;11.63;69.67
46534;BME280;32260;52.008;4.752;2022-09-27T03:39:46;99838.53;;;11.63;69.67
46534;BME280;32260;52.008;4.752;2022-09-27T03:42:12;99842.88;;;11.65;68.93
46534;BME280;32260;52.008;4.752;2022-09-27T03:44:39;99846.31;;;11.68;69.46
46534;BME280;32260;52.008;4.752;2022-09-27T03:47:05;99849.03;;;11.66;69.17
46534;BME280;32260;52.008;4.752;2022-09-27T03:49:33;99852.41;;;11.70;69.46
46534;BME280;32260;52.008;4.752;2022-09-27T03:52:00;99871.13;;;11.67;69.57
46534;BME280;32260;52.008;4.752;2022-09-27T03:54:26;99871.16;;;11.65;69.55
46534;BME280;32260;52.008;4.752;2022-09-27T03:56:52;99877.44;;;11.64;69.29
46534;BME280;32260;52.008;4.752;2022-09-27T03:59:18;99872.16;;;11.62;69.42
46534;BME280;32260;52.008;4.752;2022-09-27T04:01:44;99878.44;;;11.60;69.71
46534;BME280;32260;52.008;4.752;2022-09-27T04:04:10;99878.66;;;11.55;70.19
46534;BME280;32260;52.008;4.752;2022-09-27T04:06:37;99874.81;;;11.62;69.75
46534;BME280;32260;52.008;4.752;2022-09-27T04:09:03;99862.59;;;11.58;70.61
46534;BME280;32260;52.008;4.752;2022-09-27T04:11:29;99869.25;;;11.69;70.01
46534;BME280;32260;52.008;4.752;2022-09-27T04:13:55;99876.44;;;11.67;70.70
46534;BME280;32260;52.008;4.752;2022-09-27T04:16:22;99887.06;;;11.67;70.40
46534;BME280;32260;52.008;4.752;2022-09-27T04:18:48;99881.75;;;11.67;70.50
46534;BME280;32260;52.008;4.752;2022-09-27T04:21:14;99875.50;;;11.68;70.84
46534;BME280;32260;52.008;4.752;2022-09-27T04:23:43;99856.00;;;11.69;70.35
46534;BME280;32260;52.008;4.752;2022-09-27T04:26:09;99871.13;;;11.67;70.35
46534;BME280;32260;52.008;4.752;2022-09-27T04:28:36;99879.19;;;11.63;70.29
46534;BME280;32260;52.008;4.752;2022-09-27T04:31:02;99872.47;;;11.55;69.89
46534;BME280;32260;52.008;4.752;2022-09-27T04:33:28;99871.63;;;11.54;70.49
46534;BME280;32260;52.008;4.752;2022-09-27T04:35:54;99855.69;;;11.54;70.46
46534;BME280;32260;52.008;4.752;2022-09-27T04:38:40;99855.69;;;11.54;70.47
46534;BME280;32260;52.008;4.752;2022-09-27T04:41:06;99853.03;;;11.54;70.40
46534;BME280;32260;52.008;4.752;2022-09-27T04:43:33;99848.53;;;11.56;70.71
46534;BME280;32260;52.008;4.752;2022-09-27T04:45:59;99851.00;;;11.61;70.26
46534;BME280;32260;52.008;4.752;2022-09-27T04:48:25;99857.03;;;11.64;70.33
46534;BME280;32260;52.008;4.752;2022-09-27T04:51:00;99844.44;;;11.70;70.57
46534;BME280;32260;52.008;4.752;2022-09-27T04:53:28;99850.81;;;11.65;70.66
46534;BME280;32260;52.008;4.752;2022-09-27T04:55:54;99861.38;;;11.67;70.55
46534;BME280;32260;52.008;4.752;2022-09-27T04:58:22;99854.41;;;11.64;70.66
46534;BME280;32260;52.008;4.752;2022-09-27T05:00:49;99857.19;;;11.61;70.74
46534;BME280;32260;52.008;4.752;2022-09-27T05:03:18;99862.59;;;11.58;70.79
46534;BME280;32260;52.008;4.752;2022-09-27T05:05:44;99859.84;;;11.61;70.75
46534;BME280;32260;52.008;4.752;2022-09-27T05:08:11;99859.84;;;11.61;70.91
46534;BME280;32260;52.008;4.752;2022-09-27T05:10:37;99864.25;;;11.61;70.34
46534;BME280;32260;52.008;4.752;2022-09-27T05:13:03;99867.59;;;11.66;70.86
46534;BME280;32260;52.008;4.752;2022-09-27T05:15:29;99875.44;;;11.69;70.41
46534;BME280;32260;52.008;4.752;2022-09-27T05:17:55;99869.00;;;11.75;70.62
46534;BME280;32260;52.008;4.752;2022-09-27T05:20:23;99888.25;;;11.80;70.48
46534;BME280;32260;52.008;4.752;2022-09-27T05:22:50;99883.66;;;11.85;71.02
46534;BME280;32260;52.008;4.752;2022-09-27T05:25:17;99856.97;;;11.88;70.76
46534;BME280;32260;52.008;4.752;2022-09-27T05:27:43;99865.53;;;11.95;70.72
46534;BME280;32260;52.008;4.752;2022-09-27T05:30:10;99857.63;;;11.93;71.27
46534;BME280;32260;52.008;4.752;2022-09-27T05:32:42;99862.72;;;12.00;70.90
46534;BME280;32260;52.008;4.752;2022-09-27T05:35:09;99862.72;;;12.00;70.98
46534;BME280;32260;52.008;4.752;2022-09-27T05:37:35;99884.03;;;11.98;71.07
46534;BME280;32260;52.008;4.752;2022-09-27T05:40:02;99894.19;;;11.87;70.93
46534;BME280;32260;52.008;4.752;2022-09-27T05:42:28;99875.69;;;11.85;70.83
46534;BME280;32260;52.008;4.752;2022-09-27T05:44:54;99875.56;;;11.88;70.29
46534;BME280;32260;52.008;4.752;2022-09-27T05:47:20;99866.78;;;11.86;70.48
46534;BME280;32260;52.008;4.752;2022-09-27T05:49:46;99870.13;;;11.91;70.19
46534;BME280;32260;52.008;4.752;2022-09-27T05:52:12;99870.84;;;11.96;70.77
46534;BME280;32260;52.008;4.752;2022-09-27T05:54:38;99868.09;;;11.98;70.68
46534;BME280;32260;52.008;4.752;2022-09-27T05:57:04;99868.78;;;12.03;70.60
46534;BME280;32260;52.008;4.752;2022-09-27T05:59:32;99865.94;;;12.08;70.83
46534;BME280;32260;52.008;4.752;2022-09-27T06:01:59;99868.41;;;12.12;70.57
46534;BME280;32260;52.008;4.752;2022-09-27T06:04:25;99868.25;;;12.16;70.76
46534;BME280;32260;52.008;4.752;2022-09-27T06:06:51;99871.78;;;12.16;70.62
46534;BME280;32260;52.008;4.752;2022-09-27T06:09:17;99869.94;;;12.18;70.33
46534;BME280;32260;52.008;4.752;2022-09-27T06:11:43;99868.16;;;12.19;70.42
46534;BME280;32260;52.008;4.752;2022-09-27T06:14:11;99874.31;;;12.19;70.47
46534;BME280;32260;52.008;4.752;2022-09-27T06:16:38;99860.13;;;12.20;70.50
46534;BME280;32260;52.008;4.752;2022-09-27T06:19:04;99870.59;;;12.23;70.81
46534;BME280;32260;52.008;4.752;2022-09-27T06:21:30;99861.63;;;12.26;70.95
46534;BME280;32260;52.008;4.752;2022-09-27T06:23:57;99864.16;;;12.29;70.93
46534;BME280;32260;52.008;4.752;2022-09-27T06:26:25;99871.25;;;12.28;70.94
46534;BME280;32260;52.008;4.752;2022-09-27T06:28:52;99873.91;;;12.28;70.77
46534;BME280;32260;52.008;4.752;2022-09-27T06:31:19;99876.53;;;12.30;71.27
46534;BME280;32260;52.008;4.752;2022-09-27T06:33:47;99880.09;;;12.29;71.09
46534;BME280;32260;52.008;4.752;2022-09-27T06:36:14;99872.97;;;12.29;70.75
46534;BME280;32260;52.008;4.752;2022-09-27T06:38:40;99878.38;;;12.28;70.81
46534;BME280;32260;52.008;4.752;2022-09-27T06:41:07;99877.53;;;12.27;70.44
46534;BME280;32260;52.008;4.752;2022-09-27T06:43:34;99870.47;;;12.26;70.59
46534;BME280;32260;52.008;4.752;2022-09-27T06:46:02;99868.75;;;12.25;70.47
46534;BME280;32260;52.008;4.752;2022-09-27T06:48:31;99872.22;;;12.27;70.56
46534;BME280;32260;52.008;4.752;2022-09-27T06:50:57;99864.94;;;12.31;70.73
46534;BME280;32260;52.008;4.752;2022-09-27T06:53:25;99877.91;;;12.39;70.63
46534;BME280;32260;52.008;4.752;2022-09-27T06:55:51;99882.25;;;12.41;70.41
46534;BME280;32260;52.008;4.752;2022-09-27T06:58:17;99885.63;;;12.45;71.23
46534;BME280;32260;52.008;4.752;2022-09-27T07:01:03;99890.69;;;12.51;70.98
46534;BME280;32260;52.008;4.752;2022-09-27T07:03:30;99898.38;;;12.57;70.99
46534;BME280;32260;52.008;4.752;2022-09-27T07:06:01;99899.16;;;12.59;70.68
46534;BME280;32260;52.008;4.752;2022-09-27T07:08:28;99912.31;;;12.62;70.63
46534;BME280;32260;52.008;4.752;2022-09-27T07:10:59;99916.84;;;12.60;70.89
46534;BME280;32260;52.008;4.752;2022-09-27T07:13:29;99909.78;;;12.59;70.42
46534;BME280;32260;52.008;4.752;2022-09-27T07:16:00;99911.06;;;12.51;70.97
46534;BME280;32260;52.008;4.752;2022-09-27T07:18:26;99927.25;;;12.44;70.07
46534;BME280;32260;52.008;4.752;2022-09-27T07:20:53;99925.75;;;12.39;69.91
46534;BME280;32260;52.008;4.752;2022-09-27T07:23:19;99930.41;;;12.32;70.03
46534;BME280;32260;52.008;4.752;2022-09-27T07:25:45;99934.59;;;12.17;69.96
46534;BME280;32260;52.008;4.752;2022-09-27T07:28:15;99939.63;;;12.23;70.15
46534;BME280;32260;52.008;4.752;2022-09-27T07:30:41;99930.09;;;12.19;69.96
46534;BME280;32260;52.008;4.752;2022-09-27T07:33:09;99931.88;;;12.19;69.50
46534;BME280;32260;52.008;4.752;2022-09-27T07:35:39;99937.81;;;12.03;69.81
46534;BME280;32260;52.008;4.752;2022-09-27T07:38:06;99935.53;;;11.92;69.44
46534;BME280;32260;52.008;4.752;2022-09-27T07:40:35;99949.63;;;11.94;69.22
46534;BME280;32260;52.008;4.752;2022-09-27T07:43:01;99954.94;;;11.94;70.06
46534;BME280;32260;52.008;4.752;2022-09-27T07:45:28;99951.38;;;11.95;70.07
46534;BME280;32260;52.008;4.752;2022-09-27T07:47:55;99953.06;;;11.98;69.78
46534;BME280;32260;52.008;4.752;2022-09-27T07:50:21;99952.00;;;12.02;69.95
46534;BME280;32260;52.008;4.752;2022-09-27T07:52:48;99959.03;;;12.03;69.77
46534;BME280;32260;52.008;4.752;2022-09-27T07:55:17;99948.66;;;11.97;70.38
46534;BME280;32260;52.008;4.752;2022-09-27T07:57:43;99947.69;;;12.00;70.25
46534;BME280;32260;52.008;4.752;2022-09-27T08:00:15;99951.00;;;12.05;70.07
46534;BME280;32260;52.008;4.752;2022-09-27T08:02:42;99944.59;;;12.10;70.36
46534;BME280;32260;52.008;4.752;2022-09-27T08:05:09;99939.03;;;12.17;70.65
46534;BME280;32260;52.008;4.752;2022-09-27T08:07:37;99944.03;;;12.24;70.57
46534;BME280;32260;52.008;4.752;2022-09-27T08:10:05;99940.28;;;12.30;70.32
46534;BME280;32260;52.008;4.752;2022-09-27T08:12:32;99943.44;;;12.38;70.39
46534;BME280;32260;52.008;4.752;2022-09-27T08:14:58;99942.34;;;12.44;70.93
46534;BME280;32260;52.008;4.752;2022-09-27T08:17:27;99954.44;;;12.51;70.30
46534;BME280;32260;52.008;4.752;2022-09-27T08:19:53;99961.34;;;12.55;70.52
46534;BME280;32260;52.008;4.752;2022-09-27T08:22:19;99973.44;;;12.62;70.32
46534;BME280;32260;52.008;4.752;2022-09-27T08:24:46;99968.97;;;12.63;70.14
46534;BME280;32260;52.008;4.752;2022-09-27T08:27:13;99975.19;;;12.64;70.35
46534;BME280;32260;52.008;4.752;2022-09-27T08:29:39;99976.03;;;12.64;70.77
46534;BME280;32260;52.008;4.752;2022-09-27T08:32:08;99980.34;;;12.67;70.27
46534;BME280;32260;52.008;4.752;2022-09-27T08:34:34;99989.25;;;12.66;70.13
46534;BME280;32260;52.008;4.752;2022-09-27T08:37:00;99995.63;;;12.61;69.89
46534;BME280;32260;52.008;4.752;2022-09-27T08:39:26;99984.19;;;12.59;70.43
46534;BME280;32260;52.008;4.752;2022-09-27T08:47:51;99986.59;;;12.45;70.12
46534;BME280;32260;52.008;4.752;2022-09-27T08:53:03;100006.34;;;12.38;69.57
46534;BME280;32260;52.008;4.752;2022-09-27T08:55:34;99998.06;;;12.45;69.48
46534;BME280;32260;52.008;4.752;2022-09-27T08:58:03;99994.41;;;12.26;69.69
46534;BME280;32260;52.008;4.752;2022-09-27T09:00:35;99985.66;;;12.24;70.01
46534;BME280;32260;52.008;4.752;2022-09-27T09:03:02;99980.22;;;12.27;70.35
46534;BME280;32260;52.008;4.752;2022-09-27T09:05:31;99986.09;;;12.35;70.26
46534;BME280;32260;52.008;4.752;2022-09-27T09:11:32;99986.47;;;12.69;70.05
46534;BME280;32260;52.008;4.752;2022-09-27T09:15:30;99999.44;;;12.76;70.46
46534;BME280;32260;52.008;4.752;2022-09-27T09:17:21;99985.72;;;12.86;70.59
46534;BME280;32260;52.008;4.752;2022-09-27T09:21:18;99982.16;;;12.87;70.27
46534;BME280;32260;52.008;4.752;2022-09-27T09:31:55;99972.13;;;13.33;70.43
46534;BME280;32260;52.008;4.752;2022-09-27T09:34:16;99977.06;;;13.42;70.78
46534;BME280;32260;52.008;4.752;2022-09-27T09:39:44;99976.72;;;13.50;70.58
46534;BME280;32260;52.008;4.752;2022-09-27T09:42:17;99974.06;;;13.50;70.48
46534;BME280;32260;52.008;4.752;2022-09-27T09:45:03;99980.03;;;13.55;69.91
46534;BME280;32260;52.008;4.752;2022-09-27T09:47:50;99972.97;;;13.54;69.83
46534;BME280;32260;52.008;4.752;2022-09-27T09:50:22;99982.03;;;13.50;70.15
46534;BME280;32260;52.008;4.752;2022-09-27T09:52:56;99976.72;;;13.50;69.94
46534;BME280;32260;52.008;4.752;2022-09-27T09:55:27;99984.69;;;13.50;69.85
46534;BME280;32260;52.008;4.752;2022-09-27T09:58:18;99991.69;;;13.53;69.93
46534;BME280;32260;52.008;4.752;2022-09-27T10:00:48;99998.16;;;13.47;69.61
46534;BME280;32260;52.008;4.752;2022-09-27T10:03:15;99990.31;;;13.44;69.78
46534;BME280;32260;52.008;4.752;2022-09-27T10:05:44;100001.81;;;13.45;69.79
46534;BME280;32260;52.008;4.752;2022-09-27T10:08:17;100008.94;;;13.44;69.15
46534;BME280;32260;52.008;4.752;2022-09-27T10:10:44;100002.03;;;13.40;69.35
46534;BME280;32260;52.008;4.752;2022-09-27T10:13:16;100016.38;;;13.36;69.46
46534;BME280;32260;52.008;4.752;2022-09-27T10:15:51;100018.34;;;13.31;69.30
46534;BME280;32260;52.008;4.752;2022-09-27T10:18:18;100023.00;;;13.25;69.34
46534;BME280;32260;52.008;4.752;2022-09-27T10:20:56;100014.19;;;13.25;69.56
46534;BME280;32260;52.008;4.752;2022-09-27T10:23:25;100006.66;;;13.14;69.29
46534;BME280;32260;52.008;4.752;2022-09-27T10:25:56;99997.97;;;13.10;69.48
46534;BME280;32260;52.008;4.752;2022-09-27T10:31:08;99998.03;;;12.88;69.27
46534;BME280;32260;52.008;4.752;2022-09-27T10:33:50;100005.22;;;12.86;69.87
46534;BME280;32260;52.008;4.752;2022-09-27T10:36:34;100005.75;;;12.94;69.30
46534;BME280;32260;52.008;4.752;2022-09-27T10:39:03;100011.41;;;12.87;69.64
46534;BME280;32260;52.008;4.752;2022-09-27T10:47:08;100019.81;;;12.76;69.58
46534;BME280;32260;52.008;4.752;2022-09-27T10:49:36;100015.81;;;12.66;69.41
46534;BME280;32260;52.008;4.752;2022-09-27T10:52:06;100003.97;;;12.52;69.68
46534;BME280;32260;52.008;4.752;2022-09-27T10:54:38;99999.88;;;12.45;69.83
46534;BME280;32260;52.008;4.752;2022-09-27T10:57:15;100003.38;;;12.45;70.18
46534;BME280;32260;52.008;4.752;2022-09-27T10:59:46;99993.84;;;12.40;69.76
46534;BME280;32260;52.008;4.752;2022-09-27T11:02:20;99997.56;;;12.36;69.67
46534;BME280;32260;52.008;4.752;2022-09-27T11:05:08;100011.91;;;12.32;69.92
46534;BME280;32260;52.008;4.752;2022-09-27T11:07:37;100011.72;;;12.14;70.30
46534;BME280;32260;52.008;4.752;2022-09-27T11:10:29;100005.38;;;12.18;69.59
46534;BME280;32260;52.008;4.752;2022-09-27T11:24:53;99979.22;;;12.52;70.28
46534;BME280;32260;52.008;4.752;2022-09-27T11:30:24;99970.97;;;12.58;70.62
46534;BME280;32260;52.008;4.752;2022-09-27T11:39:22;99971.31;;;12.71;69.86
46534;BME280;32260;52.008;4.752;2022-09-27T11:41:55;99970.28;;;12.75;70.59
46534;BME280;32260;52.008;4.752;2022-09-27T11:47:19;99953.25;;;13.00;70.51
46534;BME280;32260;52.008;4.752;2022-09-27T12:06:15;99951.66;;;13.93;69.66
46534;BME280;32260;52.008;4.752;2022-09-27T12:11:52;99960.81;;;14.23;69.55
46534;BME280;32260;52.008;4.752;2022-09-27T12:14:42;99955.59;;;14.39;68.97
46534;BME280;32260;52.008;4.752;2022-09-27T12:17:15;99959.13;;;14.40;68.17
46534;BME280;32260;52.008;4.752;2022-09-27T12:19:48;99957.06;;;14.45;67.56
46534;BME280;32260;52.008;4.752;2022-09-27T12:22:21;99950.97;;;14.43;66.22
46534;BME280;32260;52.008;4.752;2022-09-27T12:24:49;99950.97;;;14.43;66.69
46534;BME280;32260;52.008;4.752;2022-09-27T12:27:21;99947.75;;;14.54;66.86
46534;BME280;32260;52.008;4.752;2022-09-27T12:29:49;99947.31;;;14.63;67.19
46534;BME280;32260;52.008;4.752;2022-09-27T12:32:23;99942.22;;;14.76;67.53
46534;BME280;32260;52.008;4.752;2022-09-27T12:34:59;99932.56;;;14.91;67.17
46534;BME280;32260;52.008;4.752;2022-09-27T12:40:39;99930.88;;;15.06;66.22
46534;BME280;32260;52.008;4.752;2022-09-27T12:45:43;99917.75;;;15.35;66.59
46534;BME280;32260;52.008;4.752;2022-09-27T12:48:27;99925.09;;;15.47;66.15
46534;BME280;32260;52.008;4.752;2022-09-27T12:51:06;99915.91;;;15.53;64.77
46534;BME280;32260;52.008;4.752;2022-09-27T12:57:48;99907.22;;;15.81;65.15
46534;BME280;32260;52.008;4.752;2022-09-27T13:05:11;99892.19;;;16.11;62.73
46534;BME280;32260;52.008;4.752;2022-09-27T13:13:11;99889.38;;;15.98;61.72
46534;BME280;32260;52.008;4.752;2022-09-27T13:15:41;99894.28;;;15.90;62.44
46534;BME280;32260;52.008;4.752;2022-09-27T13:18:31;99892.50;;;15.90;63.66
46534;BME280;32260;52.008;4.752;2022-09-27T13:20:58;99886.72;;;15.82;64.39
46534;BME280;32260;52.008;4.752;2022-09-27T13:48:38;99875.59;;;15.26;59.53
46534;BME280;32260;52.008;4.752;2022-09-27T13:52:16;99877.81;;;15.33;60.61
46534;BME280;32260;52.008;4.752;2022-09-27T13:54:04;99870.59;;;15.19;59.28
46534;BME280;32260;52.008;4.752;2022-09-27T13:56:51;99873.59;;;15.29;59.38
46534;BME280;32260;52.008;4.752;2022-09-27T13:59:25;99863.69;;;15.15;57.46
46534;BME280;32260;52.008;4.752;2022-09-27T14:02:10;99857.25;;;15.19;59.92
46534;BME280;32260;52.008;4.752;2022-09-27T14:04:46;99860.25;;;15.13;58.27
46534;BME280;32260;52.008;4.752;2022-09-27T14:07:15;99864.38;;;15.03;55.50
46534;BME280;32260;52.008;4.752;2022-09-27T14:09:46;99851.28;;;14.98;56.28
46534;BME280;32260;52.008;4.752;2022-09-27T14:12:18;99852.66;;;15.06;56.46
46534;BME280;32260;52.008;4.752;2022-09-27T14:14:45;99847.66;;;14.99;54.01
46534;BME280;32260;52.008;4.752;2022-09-27T14:17:14;99844.66;;;15.06;54.79
46534;BME280;32260;52.008;4.752;2022-09-27T14:19:42;99844.56;;;15.07;53.26
46534;BME280;32260;52.008;4.752;2022-09-27T14:22:18;99833.56;;;15.13;53.92
46534;BME280;32260;52.008;4.752;2022-09-27T14:24:48;99838.38;;;15.23;56.51
46534;BME280;32260;52.008;4.752;2022-09-27T14:32:31;99834.44;;;15.46;54.59
46534;BME280;32260;52.008;4.752;2022-09-27T14:37:52;99829.44;;;15.56;56.97
46534;BME280;32260;52.008;4.752;2022-09-27T14:40:20;99835.72;;;15.55;56.42
46534;BME280;32260;52.008;4.752;2022-09-27T14:42:52;99829.78;;;15.49;55.97
46534;BME280;32260;52.008;4.752;2022-09-27T14:47:57;99825.56;;;15.13;52.84
46534;BME280;32260;52.008;4.752;2022-09-27T14:50:27;99831.06;;;15.10;52.82
46534;BME280;32260;52.008;4.752;2022-09-27T14:52:55;99827.16;;;15.00;53.45
46534;BME280;32260;52.008;4.752;2022-09-27T14:55:25;99832.13;;;14.90;55.54
46534;BME280;32260;52.008;4.752;2022-09-27T14:57:57;99837.38;;;14.76;54.58
46534;BME280;32260;52.008;4.752;2022-09-27T15:00:29;99847.34;;;14.54;54.32
46534;BME280;32260;52.008;4.752;2022-09-27T15:02:58;99847.41;;;14.35;56.62
46534;BME280;32260;52.008;4.752;2022-09-27T15:05:28;99853.78;;;14.15;57.88
46534;BME280;32260;52.008;4.752;2022-09-27T15:07:59;99851.91;;;14.00;59.19
46534;BME280;32260;52.008;4.752;2022-09-27T15:10:33;99835.91;;;13.82;60.25
46534;BME280;32260;52.008;4.752;2022-09-27T15:13:00;99837.22;;;13.73;61.31
46534;BME280;32260;52.008;4.752;2022-09-27T15:15:33;99830.38;;;13.68;61.60
46534;BME280;32260;52.008;4.752;2022-09-27T15:18:29;99833.75;;;13.71;62.73
46534;BME280;32260;52.008;4.752;2022-09-27T15:20:56;99842.56;;;13.54;63.18
46534;BME280;32260;52.008;4.752;2022-09-27T15:23:27;99858.81;;;13.48;63.70
46534;BME280;32260;52.008;4.752;2022-09-27T15:26:09;99855.47;;;13.45;63.80
46534;BME280;32260;52.008;4.752;2022-09-27T15:28:36;99835.59;;;13.33;64.15
46534;BME280;32260;52.008;4.752;2022-09-27T15:31:07;99839.19;;;13.32;62.95
46534;BME280;32260;52.008;4.752;2022-09-27T15:33:34;99846.41;;;13.30;64.29
46534;BME280;32260;52.008;4.752;2022-09-27T15:36:03;99840.28;;;13.27;64.27
46534;BME280;32260;52.008;4.752;2022-09-27T15:43:48;99823.75;;;13.40;64.16
46534;BME280;32260;52.008;4.752;2022-09-27T15:51:52;99811.88;;;13.47;64.61
46534;BME280;32260;52.008;4.752;2022-09-27T15:54:21;99822.28;;;13.52;64.54
46534;BME280;32260;52.008;4.752;2022-09-27T15:56:49;99817.84;;;13.52;65.55
46534;BME280;32260;52.008;4.752;2022-09-27T15:59:26;99806.81;;;13.60;65.34
46534;BME280;32260;52.008;4.752;2022-09-27T16:01:58;99815.72;;;13.59;65.15
46534;BME280;32260;52.008;4.752;2022-09-27T16:04:25;99805.31;;;13.54;65.03
46534;BME280;32260;52.008;4.752;2022-09-27T16:06:53;99804.38;;;13.55;65.40